Terminal Aerodrome Forecast
Issued by NWS

Home | Current Version | Previous Version | Text Only | Print | Product List | Glossary Off
Versions: 1 2 3 4 5 6 7 8 9 10 11 12 13 14 15 16 17 18 19 20 21

000
FTUS43 KBIS 291700 RRA
TAFJMS
TAF
KJMS 291741Z 2918/3018 33015G21KT 5SM -SN OVC015
     FM292200 34009KT P6SM OVC025
     FM300100 12005KT P6SM SCT100=

USA.gov is the U.S. government's official web portal to all federal, state and local government web resources and services.